Aviation Digital Data Service (ADDS)

Output produced by METARs form (1519 UTC 23 January 2019)
found at http://www.aviationweather.gov/metar/data/
 
Forecast for: VTSG (KRABI , TH)
Text: TAF VTSG 231100Z 2312/2412 04006KT 9999 FEW020
Forecast period: 1200 to 2000 UTC 23 January 2019
Forecast type: FROM: standard forecast or significant change
Winds: from the NE (40 degrees) at 7 MPH (6 knots; 3.1 m/s)
Visibility: 6 or more miles 10+ km)
Ceiling: at least 12,000 feet AGL
Clouds: few clouds at 2000 feet AGL
Weather: no significant weather forecast for this period
Text: BECMG 2320/2322 5000 BR
Forecast period: 2000 UTC 23 January 2019 to 0000 UTC 24 January 2019
Forecast type: BECOMING: Conditions expected to become as follows by 2200 UTC 23 January 2019
Winds: from the NE (40 degrees) at 7 MPH (6 knots; 3.1 m/s)
Visibility: 3 miles (5 km)
Ceiling: at least 12,000 feet AGL
Clouds: few clouds at 2000 feet AGL
Weather: BR  (mist)
Text: BECMG 2400/2402 9999 NSW
Forecast period: 0000 to 1200 UTC 24 January 2019
Forecast type: BECOMING: Conditions expected to become as follows by 0200 UTC 24 January 2019
Winds: from the NE (40 degrees) at 7 MPH (6 knots; 3.1 m/s)
Visibility: 6 or more miles 10+ km)
Ceiling: at least 12,000 feet AGL
Clouds: few clouds at 2000 feet AGL
Weather: NSW  (no significant weather)